sensor_id;sensor_type;location;lat;lon;timestamp;temperature;humidity
3478;DHT22;37937;61.490;23.506;2022-07-01T00:01:21;18.10;99.90
3478;DHT22;37937;61.490;23.506;2022-07-01T00:03:47;18.10;99.90
3478;DHT22;37937;61.490;23.506;2022-07-01T00:06:16;18.00;99.90
3478;DHT22;37937;61.490;23.506;2022-07-01T00:08:42;17.80;99.90
3478;DHT22;37937;61.490;23.506;2022-07-01T00:11:08;17.70;99.90
3478;DHT22;37937;61.490;23.506;2022-07-01T00:13:34;17.70;99.90
3478;DHT22;37937;61.490;23.506;2022-07-01T00:15:59;17.60;99.90
3478;DHT22;37937;61.490;23.506;2022-07-01T00:18:25;17.60;99.90
3478;DHT22;37937;61.490;23.506;2022-07-01T00:20:51;17.60;99.90
3478;DHT22;37937;61.490;23.506;2022-07-01T00:23:17;17.70;99.90
3478;DHT22;37937;61.490;23.506;2022-07-01T00:25:43;17.80;99.90
3478;DHT22;37937;61.490;23.506;2022-07-01T00:28:09;17.80;99.90
3478;DHT22;37937;61.490;23.506;2022-07-01T00:30:34;17.70;99.90
3478;DHT22;37937;61.490;23.506;2022-07-01T00:33:00;17.80;99.90
3478;DHT22;37937;61.490;23.506;2022-07-01T00:35:26;17.90;99.90
3478;DHT22;37937;61.490;23.506;2022-07-01T00:37:51;17.80;99.90
3478;DHT22;37937;61.490;23.506;2022-07-01T00:40:17;17.70;99.90
3478;DHT22;37937;61.490;23.506;2022-07-01T00:42:42;17.60;99.90
3478;DHT22;37937;61.490;23.506;2022-07-01T00:45:09;17.50;99.90
3478;DHT22;37937;61.490;23.506;2022-07-01T00:47:36;17.40;99.90
3478;DHT22;37937;61.490;23.506;2022-07-01T00:50:03;17.40;99.90
3478;DHT22;37937;61.490;23.506;2022-07-01T00:52:29;17.30;99.90
3478;DHT22;37937;61.490;23.506;2022-07-01T00:54:54;17.30;99.90
3478;DHT22;37937;61.490;23.506;2022-07-01T00:57:20;17.20;99.90
3478;DHT22;37937;61.490;23.506;2022-07-01T00:59:46;17.20;99.90
3478;DHT22;37937;61.490;23.506;2022-07-01T01:02:11;17.20;99.90
3478;DHT22;37937;61.490;23.506;2022-07-01T01:04:37;17.20;99.90
3478;DHT22;37937;61.490;23.506;2022-07-01T01:07:03;17.10;99.90
3478;DHT22;37937;61.490;23.506;2022-07-01T01:09:29;17.10;99.90
3478;DHT22;37937;61.490;23.506;2022-07-01T01:11:55;17.20;99.90
3478;DHT22;37937;61.490;23.506;2022-07-01T01:14:23;17.30;99.90
3478;DHT22;37937;61.490;23.506;2022-07-01T01:16:49;17.30;99.90
3478;DHT22;37937;61.490;23.506;2022-07-01T01:19:14;17.40;99.90
3478;DHT22;37937;61.490;23.506;2022-07-01T01:21:40;17.10;99.90
3478;DHT22;37937;61.490;23.506;2022-07-01T01:24:05;17.00;99.90
3478;DHT22;37937;61.490;23.506;2022-07-01T01:26:32;17.00;99.90
3478;DHT22;37937;61.490;23.506;2022-07-01T01:28:58;17.20;99.90
3478;DHT22;37937;61.490;23.506;2022-07-01T01:31:30;17.20;99.90
3478;DHT22;37937;61.490;23.506;2022-07-01T01:33:56;17.00;99.90
3478;DHT22;37937;61.490;23.506;2022-07-01T01:36:22;16.80;99.90
3478;DHT22;37937;61.490;23.506;2022-07-01T01:38:48;16.80;99.90
3478;DHT22;37937;61.490;23.506;2022-07-01T01:41:14;16.80;99.90
3478;DHT22;37937;61.490;23.506;2022-07-01T01:43:39;16.80;99.90
3478;DHT22;37937;61.490;23.506;2022-07-01T01:46:05;16.70;99.90
3478;DHT22;37937;61.490;23.506;2022-07-01T01:48:30;16.70;99.90
3478;DHT22;37937;61.490;23.506;2022-07-01T01:50:56;16.70;99.90
3478;DHT22;37937;61.490;23.506;2022-07-01T01:53:22;16.60;99.90
3478;DHT22;37937;61.490;23.506;2022-07-01T01:55:48;16.60;99.90
3478;DHT22;37937;61.490;23.506;2022-07-01T01:58:13;16.60;99.90
3478;DHT22;37937;61.490;23.506;2022-07-01T02:00:39;16.60;99.90
3478;DHT22;37937;61.490;23.506;2022-07-01T02:03:05;16.60;99.90
3478;DHT22;37937;61.490;23.506;2022-07-01T02:05:30;16.50;99.90
3478;DHT22;37937;61.490;23.506;2022-07-01T02:07:56;16.50;99.90
3478;DHT22;37937;61.490;23.506;2022-07-01T02:10:21;16.60;99.90
3478;DHT22;37937;61.490;23.506;2022-07-01T02:12:47;16.60;99.90
3478;DHT22;37937;61.490;23.506;2022-07-01T02:15:13;16.60;99.90
3478;DHT22;37937;61.490;23.506;2022-07-01T02:17:38;16.70;99.90
3478;DHT22;37937;61.490;23.506;2022-07-01T02:20:04;16.70;99.90
3478;DHT22;37937;61.490;23.506;2022-07-01T02:22:30;16.70;99.90
3478;DHT22;37937;61.490;23.506;2022-07-01T02:24:55;16.70;99.90
3478;DHT22;37937;61.490;23.506;2022-07-01T02:27:21;16.80;99.90
3478;DHT22;37937;61.490;23.506;2022-07-01T02:29:47;16.80;99.90
3478;DHT22;37937;61.490;23.506;2022-07-01T02:32:12;16.80;99.90
3478;DHT22;37937;61.490;23.506;2022-07-01T02:34:38;16.90;99.90
3478;DHT22;37937;61.490;23.506;2022-07-01T02:37:03;16.90;99.90
3478;DHT22;37937;61.490;23.506;2022-07-01T02:39:29;17.00;99.90
3478;DHT22;37937;61.490;23.506;2022-07-01T02:41:55;17.10;99.90
3478;DHT22;37937;61.490;23.506;2022-07-01T02:44:39;17.00;99.90
3478;DHT22;37937;61.490;23.506;2022-07-01T02:47:04;17.10;99.90
3478;DHT22;37937;61.490;23.506;2022-07-01T02:49:31;17.20;99.90
3478;DHT22;37937;61.490;23.506;2022-07-01T02:51:56;17.40;99.90
3478;DHT22;37937;61.490;23.506;2022-07-01T02:54:22;17.40;99.90
3478;DHT22;37937;61.490;23.506;2022-07-01T02:56:48;17.50;99.90
3478;DHT22;37937;61.490;23.506;2022-07-01T02:59:13;17.50;99.90
3478;DHT22;37937;61.490;23.506;2022-07-01T03:01:39;17.60;99.90
3478;DHT22;37937;61.490;23.506;2022-07-01T03:04:04;17.80;99.90
3478;DHT22;37937;61.490;23.506;2022-07-01T03:06:30;18.00;99.90
3478;DHT22;37937;61.490;23.506;2022-07-01T03:08:56;18.10;99.90
3478;DHT22;37937;61.490;23.506;2022-07-01T03:11:23;18.30;99.90
3478;DHT22;37937;61.490;23.506;2022-07-01T03:13:48;18.40;99.90
3478;DHT22;37937;61.490;23.506;2022-07-01T03:16:14;18.50;99.90
3478;DHT22;37937;61.490;23.506;2022-07-01T03:18:40;18.70;99.90
3478;DHT22;37937;61.490;23.506;2022-07-01T03:21:06;18.80;99.90
3478;DHT22;37937;61.490;23.506;2022-07-01T03:23:31;18.90;99.90
3478;DHT22;37937;61.490;23.506;2022-07-01T03:25:57;19.00;99.90
3478;DHT22;37937;61.490;23.506;2022-07-01T03:28:22;19.30;99.90
3478;DHT22;37937;61.490;23.506;2022-07-01T03:30:48;19.30;99.90
3478;DHT22;37937;61.490;23.506;2022-07-01T03:33:14;19.60;99.90
3478;DHT22;37937;61.490;23.506;2022-07-01T03:35:39;19.80;99.90
3478;DHT22;37937;61.490;23.506;2022-07-01T03:38:05;20.00;99.90
3478;DHT22;37937;61.490;23.506;2022-07-01T03:40:31;20.30;99.90
3478;DHT22;37937;61.490;23.506;2022-07-01T03:42:57;20.50;99.90
3478;DHT22;37937;61.490;23.506;2022-07-01T03:45:23;20.60;99.90
3478;DHT22;37937;61.490;23.506;2022-07-01T03:47:48;20.80;99.90
3478;DHT22;37937;61.490;23.506;2022-07-01T03:50:15;20.90;99.90
3478;DHT22;37937;61.490;23.506;2022-07-01T03:52:41;21.10;99.90
3478;DHT22;37937;61.490;23.506;2022-07-01T03:55:10;21.10;99.90
3478;DHT22;37937;61.490;23.506;2022-07-01T03:57:36;21.20;99.90
3478;DHT22;37937;61.490;23.506;2022-07-01T04:00:02;21.30;99.90
3478;DHT22;37937;61.490;23.506;2022-07-01T04:02:27;21.40;99.90
3478;DHT22;37937;61.490;23.506;2022-07-01T04:04:53;21.60;99.90
3478;DHT22;37937;61.490;23.506;2022-07-01T04:07:20;21.70;99.90
3478;DHT22;37937;61.490;23.506;2022-07-01T04:09:46;22.10;99.90
3478;DHT22;37937;61.490;23.506;2022-07-01T04:12:12;22.30;99.90
3478;DHT22;37937;61.490;23.506;2022-07-01T04:14:38;22.90;99.90
3478;DHT22;37937;61.490;23.506;2022-07-01T04:17:03;23.30;99.90
3478;DHT22;37937;61.490;23.506;2022-07-01T04:19:29;23.80;99.90
3478;DHT22;37937;61.490;23.506;2022-07-01T04:21:55;24.40;99.90
3478;DHT22;37937;61.490;23.506;2022-07-01T04:24:39;24.80;99.90
3478;DHT22;37937;61.490;23.506;2022-07-01T04:27:04;25.50;99.90
3478;DHT22;37937;61.490;23.506;2022-07-01T04:29:30;25.80;93.40
3478;DHT22;37937;61.490;23.506;2022-07-01T04:31:56;26.20;90.00
3478;DHT22;37937;61.490;23.506;2022-07-01T04:34:22;26.20;93.70
3478;DHT22;37937;61.490;23.506;2022-07-01T04:36:48;26.70;77.60
3478;DHT22;37937;61.490;23.506;2022-07-01T04:39:14;26.60;98.80
3478;DHT22;37937;61.490;23.506;2022-07-01T04:41:39;27.30;93.30
3478;DHT22;37937;61.490;23.506;2022-07-01T04:44:24;27.20;60.90
3478;DHT22;37937;61.490;23.506;2022-07-01T04:46:49;27.20;63.30
3478;DHT22;37937;61.490;23.506;2022-07-01T04:49:15;27.20;78.10
3478;DHT22;37937;61.490;23.506;2022-07-01T04:51:41;27.40;46.10
3478;DHT22;37937;61.490;23.506;2022-07-01T04:54:06;27.70;46.10
3478;DHT22;37937;61.490;23.506;2022-07-01T04:56:32;27.90;37.70
3478;DHT22;37937;61.490;23.506;2022-07-01T04:58:59;27.30;32.40
3478;DHT22;37937;61.490;23.506;2022-07-01T05:01:24;27.20;34.10
3478;DHT22;37937;61.490;23.506;2022-07-01T05:03:50;27.90;37.60
3478;DHT22;37937;61.490;23.506;2022-07-01T05:06:16;28.30;33.20
3478;DHT22;37937;61.490;23.506;2022-07-01T05:08:41;28.20;26.30
3478;DHT22;37937;61.490;23.506;2022-07-01T05:11:07;28.60;30.20
3478;DHT22;37937;61.490;23.506;2022-07-01T05:13:33;28.80;25.40
3478;DHT22;37937;61.490;23.506;2022-07-01T05:15:59;29.10;34.80
3478;DHT22;37937;61.490;23.506;2022-07-01T05:18:24;28.80;33.30
3478;DHT22;37937;61.490;23.506;2022-07-01T05:21:09;29.20;29.90
3478;DHT22;37937;61.490;23.506;2022-07-01T05:23:53;28.80;25.40
3478;DHT22;37937;61.490;23.506;2022-07-01T05:26:18;28.80;27.50
3478;DHT22;37937;61.490;23.506;2022-07-01T05:28:44;28.60;26.30
3478;DHT22;37937;61.490;23.506;2022-07-01T05:31:10;28.50;27.40
3478;DHT22;37937;61.490;23.506;2022-07-01T05:33:36;28.60;25.30
3478;DHT22;37937;61.490;23.506;2022-07-01T05:36:01;28.60;35.80
3478;DHT22;37937;61.490;23.506;2022-07-01T05:38:27;28.50;30.50
3478;DHT22;37937;61.490;23.506;2022-07-01T05:40:53;28.40;38.40
3478;DHT22;37937;61.490;23.506;2022-07-01T05:43:19;28.60;27.50
3478;DHT22;37937;61.490;23.506;2022-07-01T05:45:45;29.00;28.50
3478;DHT22;37937;61.490;23.506;2022-07-01T05:48:10;29.00;29.40
3478;DHT22;37937;61.490;23.506;2022-07-01T05:50:36;29.40;30.70
3478;DHT22;37937;61.490;23.506;2022-07-01T05:53:02;29.60;31.40
3478;DHT22;37937;61.490;23.506;2022-07-01T05:55:28;29.80;26.20
3478;DHT22;37937;61.490;23.506;2022-07-01T05:57:54;29.40;31.40
3478;DHT22;37937;61.490;23.506;2022-07-01T06:00:19;29.30;32.00
3478;DHT22;37937;61.490;23.506;2022-07-01T06:02:45;29.00;34.10
3478;DHT22;37937;61.490;23.506;2022-07-01T06:05:11;28.70;28.10
3478;DHT22;37937;61.490;23.506;2022-07-01T06:07:39;28.20;41.30
3478;DHT22;37937;61.490;23.506;2022-07-01T06:10:06;28.50;44.90
3478;DHT22;37937;61.490;23.506;2022-07-01T06:12:32;28.80;30.00
3478;DHT22;37937;61.490;23.506;2022-07-01T06:14:58;28.30;53.10
3478;DHT22;37937;61.490;23.506;2022-07-01T06:17:23;28.80;51.80
3478;DHT22;37937;61.490;23.506;2022-07-01T06:19:49;28.10;47.60
3478;DHT22;37937;61.490;23.506;2022-07-01T06:22:14;27.60;56.10
3478;DHT22;37937;61.490;23.506;2022-07-01T06:24:42;27.30;75.10
3478;DHT22;37937;61.490;23.506;2022-07-01T06:27:10;27.20;74.50
3478;DHT22;37937;61.490;23.506;2022-07-01T06:29:36;27.80;79.50
3478;DHT22;37937;61.490;23.506;2022-07-01T06:32:02;27.70;76.50
3478;DHT22;37937;61.490;23.506;2022-07-01T06:34:28;27.40;80.50
3478;DHT22;37937;61.490;23.506;2022-07-01T06:36:53;27.10;83.50
3478;DHT22;37937;61.490;23.506;2022-07-01T06:39:21;27.50;99.90
3478;DHT22;37937;61.490;23.506;2022-07-01T06:41:46;27.80;94.20
3478;DHT22;37937;61.490;23.506;2022-07-01T06:44:12;27.50;99.00
3478;DHT22;37937;61.490;23.506;2022-07-01T06:46:38;27.60;85.60
3478;DHT22;37937;61.490;23.506;2022-07-01T06:49:04;27.20;84.10
3478;DHT22;37937;61.490;23.506;2022-07-01T06:51:30;27.80;88.30
3478;DHT22;37937;61.490;23.506;2022-07-01T06:53:55;28.20;73.30
3478;DHT22;37937;61.490;23.506;2022-07-01T06:56:21;28.60;77.60
3478;DHT22;37937;61.490;23.506;2022-07-01T06:58:47;28.40;58.70
3478;DHT22;37937;61.490;23.506;2022-07-01T07:01:12;28.70;68.70
3478;DHT22;37937;61.490;23.506;2022-07-01T07:03:38;28.30;76.60
3478;DHT22;37937;61.490;23.506;2022-07-01T07:06:04;28.80;47.40
3478;DHT22;37937;61.490;23.506;2022-07-01T07:08:30;28.90;53.20
3478;DHT22;37937;61.490;23.506;2022-07-01T07:10:56;29.00;43.30
3478;DHT22;37937;61.490;23.506;2022-07-01T07:13:22;28.80;41.40
3478;DHT22;37937;61.490;23.506;2022-07-01T07:15:48;29.00;65.40
3478;DHT22;37937;61.490;23.506;2022-07-01T07:18:13;29.70;47.30
3478;DHT22;37937;61.490;23.506;2022-07-01T07:20:39;29.40;40.40
3478;DHT22;37937;61.490;23.506;2022-07-01T07:23:05;29.60;43.80
3478;DHT22;37937;61.490;23.506;2022-07-01T07:25:31;29.90;35.50
3478;DHT22;37937;61.490;23.506;2022-07-01T07:27:56;29.40;45.10
3478;DHT22;37937;61.490;23.506;2022-07-01T07:30:22;29.20;40.40
3478;DHT22;37937;61.490;23.506;2022-07-01T07:32:48;29.90;35.90
3478;DHT22;37937;61.490;23.506;2022-07-01T07:35:13;29.90;35.60
3478;DHT22;37937;61.490;23.506;2022-07-01T07:37:39;29.60;34.80
3478;DHT22;37937;61.490;23.506;2022-07-01T07:40:06;30.20;30.00
3478;DHT22;37937;61.490;23.506;2022-07-01T07:42:34;30.30;31.90
3478;DHT22;37937;61.490;23.506;2022-07-01T07:45:00;29.80;27.70
3478;DHT22;37937;61.490;23.506;2022-07-01T07:47:26;29.80;28.40
3478;DHT22;37937;61.490;23.506;2022-07-01T07:49:52;29.90;25.90
3478;DHT22;37937;61.490;23.506;2022-07-01T07:52:17;30.10;37.10
3478;DHT22;37937;61.490;23.506;2022-07-01T07:54:43;29.70;44.30
3478;DHT22;37937;61.490;23.506;2022-07-01T07:57:09;30.10;30.00
3478;DHT22;37937;61.490;23.506;2022-07-01T07:59:34;29.70;29.20
3478;DHT22;37937;61.490;23.506;2022-07-01T08:02:00;30.20;34.60
3478;DHT22;37937;61.490;23.506;2022-07-01T08:04:26;30.30;23.70
3478;DHT22;37937;61.490;23.506;2022-07-01T08:06:51;30.50;31.20
3478;DHT22;37937;61.490;23.506;2022-07-01T08:09:17;30.20;24.20
3478;DHT22;37937;61.490;23.506;2022-07-01T08:11:43;30.70;33.30
3478;DHT22;37937;61.490;23.506;2022-07-01T08:14:09;31.40;27.30
3478;DHT22;37937;61.490;23.506;2022-07-01T08:16:35;31.30;14.60
3478;DHT22;37937;61.490;23.506;2022-07-01T08:19:00;31.40;21.40
3478;DHT22;37937;61.490;23.506;2022-07-01T08:21:28;31.00;25.40
3478;DHT22;37937;61.490;23.506;2022-07-01T08:23:53;31.00;23.90
3478;DHT22;37937;61.490;23.506;2022-07-01T08:26:19;31.10;23.20
3478;DHT22;37937;61.490;23.506;2022-07-01T08:28:45;31.10;19.70
3478;DHT22;37937;61.490;23.506;2022-07-01T08:31:10;31.30;27.40
3478;DHT22;37937;61.490;23.506;2022-07-01T08:33:36;30.00;19.60
3478;DHT22;37937;61.490;23.506;2022-07-01T08:36:05;29.80;21.60
3478;DHT22;37937;61.490;23.506;2022-07-01T08:38:31;30.50;28.80
3478;DHT22;37937;61.490;23.506;2022-07-01T08:40:57;31.20;23.10
3478;DHT22;37937;61.490;23.506;2022-07-01T08:43:22;31.40;23.80
3478;DHT22;37937;61.490;23.506;2022-07-01T08:45:48;31.70;19.80
3478;DHT22;37937;61.490;23.506;2022-07-01T08:48:15;31.60;21.40
3478;DHT22;37937;61.490;23.506;2022-07-01T08:50:41;30.70;19.00
3478;DHT22;37937;61.490;23.506;2022-07-01T08:53:08;30.90;25.90
3478;DHT22;37937;61.490;23.506;2022-07-01T08:55:34;31.30;21.70
3478;DHT22;37937;61.490;23.506;2022-07-01T08:58:29;31.60;25.00
3478;DHT22;37937;61.490;23.506;2022-07-01T09:01:13;31.70;24.80
3478;DHT22;37937;61.490;23.506;2022-07-01T09:03:39;31.90;19.80
3478;DHT22;37937;61.490;23.506;2022-07-01T09:06:10;32.20;21.50
3478;DHT22;37937;61.490;23.506;2022-07-01T09:08:36;31.50;16.70
3478;DHT22;37937;61.490;23.506;2022-07-01T09:11:10;32.10;23.20
3478;DHT22;37937;61.490;23.506;2022-07-01T09:13:36;32.00;29.90
3478;DHT22;37937;61.490;23.506;2022-07-01T09:16:10;31.70;27.90
3478;DHT22;37937;61.490;23.506;2022-07-01T09:18:35;32.10;24.90
3478;DHT22;37937;61.490;23.506;2022-07-01T09:21:01;31.70;22.80
3478;DHT22;37937;61.490;23.506;2022-07-01T09:23:28;31.90;28.20
3478;DHT22;37937;61.490;23.506;2022-07-01T09:25:56;31.90;24.40
3478;DHT22;37937;61.490;23.506;2022-07-01T09:28:22;31.50;29.00
3478;DHT22;37937;61.490;23.506;2022-07-01T09:30:49;31.20;24.40
3478;DHT22;37937;61.490;23.506;2022-07-01T09:35:41;31.30;29.80
3478;DHT22;37937;61.490;23.506;2022-07-01T09:38:10;30.90;28.50
3478;DHT22;37937;61.490;23.506;2022-07-01T09:43:18;32.10;29.50
3478;DHT22;37937;61.490;23.506;2022-07-01T09:45:51;32.20;22.10
3478;DHT22;37937;61.490;23.506;2022-07-01T09:48:17;31.50;19.70
3478;DHT22;37937;61.490;23.506;2022-07-01T09:50:43;31.50;27.30
3478;DHT22;37937;61.490;23.506;2022-07-01T09:53:09;31.70;27.80
3478;DHT22;37937;61.490;23.506;2022-07-01T09:55:35;32.00;19.00
3478;DHT22;37937;61.490;23.506;2022-07-01T09:58:01;32.70;17.80
3478;DHT22;37937;61.490;23.506;2022-07-01T10:00:27;32.70;17.50
3478;DHT22;37937;61.490;23.506;2022-07-01T10:02:55;32.90;22.80
3478;DHT22;37937;61.490;23.506;2022-07-01T10:05:22;33.30;17.50
3478;DHT22;37937;61.490;23.506;2022-07-01T10:10:44;33.00;19.50
3478;DHT22;37937;61.490;23.506;2022-07-01T10:13:13;32.30;17.40
3478;DHT22;37937;61.490;23.506;2022-07-01T10:15:41;32.20;20.40
3478;DHT22;37937;61.490;23.506;2022-07-01T10:18:14;32.10;20.50
3478;DHT22;37937;61.490;23.506;2022-07-01T10:20:45;32.60;21.20
3478;DHT22;37937;61.490;23.506;2022-07-01T10:23:11;31.60;18.80
3478;DHT22;37937;61.490;23.506;2022-07-01T10:25:44;31.50;22.10
3478;DHT22;37937;61.490;23.506;2022-07-01T10:30:52;30.90;19.40
3478;DHT22;37937;61.490;23.506;2022-07-01T10:35:52;31.30;22.70
3478;DHT22;37937;61.490;23.506;2022-07-01T10:38:18;31.30;17.00
3478;DHT22;37937;61.490;23.506;2022-07-01T10:40:44;31.00;16.90
3478;DHT22;37937;61.490;23.506;2022-07-01T10:43:14;30.40;13.60
3478;DHT22;37937;61.490;23.506;2022-07-01T10:45:43;30.60;13.30
3478;DHT22;37937;61.490;23.506;2022-07-01T10:48:22;31.40;20.90
3478;DHT22;37937;61.490;23.506;2022-07-01T10:50:49;31.10;13.50
3478;DHT22;37937;61.490;23.506;2022-07-01T10:53:15;31.30;14.30
3478;DHT22;37937;61.490;23.506;2022-07-01T10:55:45;31.50;12.60
3478;DHT22;37937;61.490;23.506;2022-07-01T10:58:11;31.10;7.90
3478;DHT22;37937;61.490;23.506;2022-07-01T11:00:40;30.70;9.50
3478;DHT22;37937;61.490;23.506;2022-07-01T11:03:13;30.80;13.00
3478;DHT22;37937;61.490;23.506;2022-07-01T11:05:39;31.10;6.30
3478;DHT22;37937;61.490;23.506;2022-07-01T11:08:05;31.30;5.80
3478;DHT22;37937;61.490;23.506;2022-07-01T11:10:31;31.90;2.10
3478;DHT22;37937;61.490;23.506;2022-07-01T11:12:58;31.70;3.90
3478;DHT22;37937;61.490;23.506;2022-07-01T11:15:24;31.20;1.00
3478;DHT22;37937;61.490;23.506;2022-07-01T11:17:49;31.60;7.80
3478;DHT22;37937;61.490;23.506;2022-07-01T11:20:15;32.10;6.70
3478;DHT22;37937;61.490;23.506;2022-07-01T11:22:41;32.30;3.60
3478;DHT22;37937;61.490;23.506;2022-07-01T11:25:08;31.90;4.40
3478;DHT22;37937;61.490;23.506;2022-07-01T11:27:34;32.10;6.00
3478;DHT22;37937;61.490;23.506;2022-07-01T11:30:04;32.40;2.30
3478;DHT22;37937;61.490;23.506;2022-07-01T11:32:31;32.50;3.80
3478;DHT22;37937;61.490;23.506;2022-07-01T11:34:57;31.90;1.00
3478;DHT22;37937;61.490;23.506;2022-07-01T11:37:27;32.10;1.00
3478;DHT22;37937;61.490;23.506;2022-07-01T11:40:12;31.20;1.00
3478;DHT22;37937;61.490;23.506;2022-07-01T11:42:39;31.40;1.00
3478;DHT22;37937;61.490;23.506;2022-07-01T11:45:05;31.20;1.00
3478;DHT22;37937;61.490;23.506;2022-07-01T11:47:31;31.20;1.00
3478;DHT22;37937;61.490;23.506;2022-07-01T11:49:57;31.40;2.70
3478;DHT22;37937;61.490;23.506;2022-07-01T11:52:23;31.60;1.00
3478;DHT22;37937;61.490;23.506;2022-07-01T11:54:50;31.40;1.00
3478;DHT22;37937;61.490;23.506;2022-07-01T11:57:17;31.60;1.00
3478;DHT22;37937;61.490;23.506;2022-07-01T11:59:43;31.70;1.00
3478;DHT22;37937;61.490;23.506;2022-07-01T12:02:10;32.00;1.00
3478;DHT22;37937;61.490;23.506;2022-07-01T12:04:36;32.10;1.00
3478;DHT22;37937;61.490;23.506;2022-07-01T12:07:02;31.60;1.00
3478;DHT22;37937;61.490;23.506;2022-07-01T12:09:28;32.00;1.00
3478;DHT22;37937;61.490;23.506;2022-07-01T12:11:54;31.80;1.00
3478;DHT22;37937;61.490;23.506;2022-07-01T12:14:26;31.60;1.00
3478;DHT22;37937;61.490;23.506;2022-07-01T12:16:53;31.00;1.00
3478;DHT22;37937;61.490;23.506;2022-07-01T12:19:19;30.00;3.40
3478;DHT22;37937;61.490;23.506;2022-07-01T12:21:49;30.20;4.90
3478;DHT22;37937;61.490;23.506;2022-07-01T12:24:15;29.40;6.90
3478;DHT22;37937;61.490;23.506;2022-07-01T12:26:50;29.50;6.40
3478;DHT22;37937;61.490;23.506;2022-07-01T12:29:17;28.80;7.50
3478;DHT22;37937;61.490;23.506;2022-07-01T12:31:43;28.70;9.20
3478;DHT22;37937;61.490;23.506;2022-07-01T12:34:09;28.70;15.60
3478;DHT22;37937;61.490;23.506;2022-07-01T12:36:34;29.30;19.70
3478;DHT22;37937;61.490;23.506;2022-07-01T12:39:04;29.20;14.70
3478;DHT22;37937;61.490;23.506;2022-07-01T12:41:31;28.80;15.70
3478;DHT22;37937;61.490;23.506;2022-07-01T12:43:59;28.70;17.60
3478;DHT22;37937;61.490;23.506;2022-07-01T12:46:30;28.50;15.20
3478;DHT22;37937;61.490;23.506;2022-07-01T12:48:57;28.80;21.50
3478;DHT22;37937;61.490;23.506;2022-07-01T12:51:41;29.00;14.50
3478;DHT22;37937;61.490;23.506;2022-07-01T12:54:07;28.80;12.20
3478;DHT22;37937;61.490;23.506;2022-07-01T12:56:32;29.30;16.30
3478;DHT22;37937;61.490;23.506;2022-07-01T12:58:58;29.80;17.10
3478;DHT22;37937;61.490;23.506;2022-07-01T13:01:24;30.20;12.40
3478;DHT22;37937;61.490;23.506;2022-07-01T13:03:50;30.10;7.80
3478;DHT22;37937;61.490;23.506;2022-07-01T13:06:15;29.80;9.70
3478;DHT22;37937;61.490;23.506;2022-07-01T13:08:41;29.90;15.30
3478;DHT22;37937;61.490;23.506;2022-07-01T13:11:07;29.70;10.10
3478;DHT22;37937;61.490;23.506;2022-07-01T13:13:32;29.30;11.40
3478;DHT22;37937;61.490;23.506;2022-07-01T13:15:58;29.30;9.80
3478;DHT22;37937;61.490;23.506;2022-07-01T13:18:24;29.40;8.00
3478;DHT22;37937;61.490;23.506;2022-07-01T13:20:50;29.10;3.00
3478;DHT22;37937;61.490;23.506;2022-07-01T13:23:15;29.60;4.00
3478;DHT22;37937;61.490;23.506;2022-07-01T13:25:41;30.00;13.00
3478;DHT22;37937;61.490;23.506;2022-07-01T13:28:07;29.30;6.00
3478;DHT22;37937;61.490;23.506;2022-07-01T13:30:32;29.40;8.50
3478;DHT22;37937;61.490;23.506;2022-07-01T13:32:58;29.20;6.70
3478;DHT22;37937;61.490;23.506;2022-07-01T13:35:24;28.90;10.30
3478;DHT22;37937;61.490;23.506;2022-07-01T13:37:50;29.40;13.20
3478;DHT22;37937;61.490;23.506;2022-07-01T13:40:16;29.40;13.50
3478;DHT22;37937;61.490;23.506;2022-07-01T13:42:43;29.50;9.80
3478;DHT22;37937;61.490;23.506;2022-07-01T13:45:09;29.90;14.50
3478;DHT22;37937;61.490;23.506;2022-07-01T13:47:35;29.40;6.70
3478;DHT22;37937;61.490;23.506;2022-07-01T13:50:01;29.50;9.20
3478;DHT22;37937;61.490;23.506;2022-07-01T13:52:26;29.30;13.60
3478;DHT22;37937;61.490;23.506;2022-07-01T13:54:53;29.20;9.70
3478;DHT22;37937;61.490;23.506;2022-07-01T13:57:19;29.20;11.00
3478;DHT22;37937;61.490;23.506;2022-07-01T13:59:45;28.80;11.20
3478;DHT22;37937;61.490;23.506;2022-07-01T14:02:10;28.90;10.50
3478;DHT22;37937;61.490;23.506;2022-07-01T14:04:36;28.70;14.30
3478;DHT22;37937;61.490;23.506;2022-07-01T14:07:02;28.90;12.40
3478;DHT22;37937;61.490;23.506;2022-07-01T14:09:28;29.00;12.50
3478;DHT22;37937;61.490;23.506;2022-07-01T14:11:54;28.70;8.20
3478;DHT22;37937;61.490;23.506;2022-07-01T14:14:19;28.70;9.40
3478;DHT22;37937;61.490;23.506;2022-07-01T14:16:45;28.80;15.50
3478;DHT22;37937;61.490;23.506;2022-07-01T14:19:10;29.10;13.20
3478;DHT22;37937;61.490;23.506;2022-07-01T14:21:36;29.30;13.60
3478;DHT22;37937;61.490;23.506;2022-07-01T14:24:05;29.20;6.20
3478;DHT22;37937;61.490;23.506;2022-07-01T14:26:31;29.50;10.40
3478;DHT22;37937;61.490;23.506;2022-07-01T14:28:56;29.10;11.60
3478;DHT22;37937;61.490;23.506;2022-07-01T14:31:22;28.90;14.50
3478;DHT22;37937;61.490;23.506;2022-07-01T14:33:47;29.20;13.50
3478;DHT22;37937;61.490;23.506;2022-07-01T14:36:13;28.90;11.00
3478;DHT22;37937;61.490;23.506;2022-07-01T14:38:39;28.70;16.20
3478;DHT22;37937;61.490;23.506;2022-07-01T14:41:04;28.80;17.60
3478;DHT22;37937;61.490;23.506;2022-07-01T14:43:30;28.80;14.70
3478;DHT22;37937;61.490;23.506;2022-07-01T14:45:56;28.70;11.90
3478;DHT22;37937;61.490;23.506;2022-07-01T14:48:22;28.80;13.50
3478;DHT22;37937;61.490;23.506;2022-07-01T14:50:48;28.80;13.10
3478;DHT22;37937;61.490;23.506;2022-07-01T14:53:13;28.60;13.70
3478;DHT22;37937;61.490;23.506;2022-07-01T14:55:39;28.80;15.50
3478;DHT22;37937;61.490;23.506;2022-07-01T14:58:05;28.80;11.20
3478;DHT22;37937;61.490;23.506;2022-07-01T15:00:31;28.80;11.30
3478;DHT22;37937;61.490;23.506;2022-07-01T15:03:02;29.00;10.00
3478;DHT22;37937;61.490;23.506;2022-07-01T15:05:27;28.80;12.50
3478;DHT22;37937;61.490;23.506;2022-07-01T15:07:53;28.50;7.90
3478;DHT22;37937;61.490;23.506;2022-07-01T15:10:19;28.60;16.30
3478;DHT22;37937;61.490;23.506;2022-07-01T15:12:44;28.40;9.60
3478;DHT22;37937;61.490;23.506;2022-07-01T15:15:10;28.40;10.50
3478;DHT22;37937;61.490;23.506;2022-07-01T15:17:40;28.50;17.30
3478;DHT22;37937;61.490;23.506;2022-07-01T15:20:06;28.00;7.00
3478;DHT22;37937;61.490;23.506;2022-07-01T15:22:32;28.10;8.70
3478;DHT22;37937;61.490;23.506;2022-07-01T15:24:58;28.40;14.90
3478;DHT22;37937;61.490;23.506;2022-07-01T15:27:23;28.50;14.10
3478;DHT22;37937;61.490;23.506;2022-07-01T15:29:49;28.70;13.10
3478;DHT22;37937;61.490;23.506;2022-07-01T15:32:14;28.80;10.30
3478;DHT22;37937;61.490;23.506;2022-07-01T15:34:40;28.70;9.90
3478;DHT22;37937;61.490;23.506;2022-07-01T15:37:06;28.20;7.30
3478;DHT22;37937;61.490;23.506;2022-07-01T15:39:31;28.00;9.20
3478;DHT22;37937;61.490;23.506;2022-07-01T15:41:59;28.30;13.60